Terminal Aerodrome Forecast
Issued by NWS Spokane, WA

Current Version | Previous Version | Text Only | Print | Product List | Glossary On
Versions: 1 2 3 4 5 6 7 8 9 10 11 12 13 14 15 16 17 18 19 20 21 22 23 24 25 26 27 28 29 30 31 32 33 34 35 36 37 38 39
364
FTUS46 KOTX 222207 AAB
TAFLWS
TAF AMD
KLWS 222207Z 2222/2318 30012G19KT P6SM FEW029 BKN045 OVC050
     FM230600 22004KT P6SM BKN050 BKN090
     FM231400 23003KT P6SM SCT250=

USA.gov is the U.S. government's official web portal to all federal, state and local government web resources and services.